Time;durP1;ratioP1;P1;durP2;ratioP2;P2;SDS_P1;SDS_P2;PMS_P1;PMS_P2;Temp;Humidity;BMP_temperature;BMP_pressure;BME280_temperature;BME280_humidity;BME280_pressure;Samples;Min_cycle;Max_cycle;Signal;HPM_P1;HPM_P2
2021/12/24 00:02:06;;;;;;;8.48;5.45;;;12.10;51.20;;;;;;20804479;28;20037;-75
2021/12/24 00:12:13;;;;;;;7.78;5.05;;;12.10;51.30;;;;;;20803141;28;20084;-76
2021/12/24 00:42:53;;;;;;;7.72;4.55;;;12.00;51.70;;;;;;20820856;28;20079;-76
2021/12/24 00:53:02;;;;;;;8.40;4.65;;;12.10;52.10;;;;;;20800992;28;20474;-75
2021/12/24 01:03:05;;;;;;;6.40;3.80;;;12.10;52.20;;;;;;20834600;28;20036;-75
2021/12/24 01:13:06;;;;;;;5.47;3.28;;;12.00;52.30;;;;;;20800136;28;20075;-75
2021/12/24 01:23:29;;;;;;;6.60;2.92;;;12.00;52.60;;;;;;20799264;28;20025;-75
2021/12/24 01:43:49;;;;;;;4.72;2.42;;;12.00;53.10;;;;;;20799615;28;20411;-77
2021/12/24 01:53:50;;;;;;;2.93;1.97;;;12.00;53.30;;;;;;20797142;28;20051;-75
2021/12/24 02:03:50;;;;;;;3.97;2.08;;;11.90;53.50;;;;;;20795828;28;20379;-74
2021/12/24 02:13:52;;;;;;;3.33;1.70;;;11.90;53.60;;;;;;20811721;28;20453;-74
2021/12/24 02:28:20;;;;;;;3.22;1.88;;;11.90;53.70;;;;;;20794662;28;20486;-75
2021/12/24 02:34:28;;;;;;;2.45;1.25;;;11.90;53.90;;;;;;20799556;28;20072;-75
2021/12/24 02:44:29;;;;;;;2.95;1.48;;;11.90;54.10;;;;;;20794744;28;20033;-78
2021/12/24 02:54:29;;;;;;;2.53;1.40;;;11.90;54.20;;;;;;20794360;28;20057;-76
2021/12/24 03:04:30;;;;;;;1.75;1.23;;;11.90;54.40;;;;;;20810421;28;20033;-75
2021/12/24 03:14:32;;;;;;;1.63;1.00;;;11.80;54.50;;;;;;20777333;28;20069;-75
2021/12/24 03:24:34;;;;;;;0.88;0.75;;;11.80;54.70;;;;;;20802833;28;20030;-75
2021/12/24 03:34:35;;;;;;;1.30;0.88;;;11.70;55.00;;;;;;20841514;28;20379;-74
2021/12/24 03:44:44;;;;;;;1.10;0.60;;;11.60;55.40;;;;;;20807292;28;20029;-74
2021/12/24 03:54:57;;;;;;;1.17;0.85;;;11.50;55.80;;;;;;20839015;28;20037;-75
2021/12/24 04:05:01;;;;;;;0.68;0.63;;;11.40;56.20;;;;;;20806368;28;20493;-76
2021/12/24 04:15:21;;;;;;;0.60;0.50;;;11.20;56.60;;;;;;20799600;28;20049;-75
2021/12/24 04:25:25;;;;;;;2.92;0.90;;;11.10;57.00;;;;;;20803910;28;20049;-74
2021/12/24 05:06:14;;;;;;;0.60;0.50;;;10.80;58.30;;;;;;20802391;28;20129;-74
2021/12/24 05:26:39;;;;;;;1.25;0.50;;;12.20;55.90;;;;;;20816925;28;20049;-73
2021/12/24 05:36:39;;;;;;;0.28;0.28;;;13.50;53.00;;;;;;20831374;28;20037;-75
2021/12/24 05:46:40;;;;;;;0.45;0.30;;;14.50;50.40;;;;;;20797105;28;20029;-74
2021/12/24 05:56:50;;;;;;;0.70;0.38;;;15.70;47.90;;;;;;20798661;28;20052;-74
2021/12/24 06:06:53;;;;;;;0.68;0.40;;;16.40;46.00;;;;;;20812788;28;20582;-73
2021/12/24 06:17:09;;;;;;;0.65;0.30;;;16.60;45.00;;;;;;20778636;28;20030;-74
2021/12/24 06:27:09;;;;;;;0.70;0.40;;;16.60;44.60;;;;;;20781495;28;20124;-74
2021/12/24 06:37:10;;;;;;;0.80;0.38;;;16.60;44.50;;;;;;20795012;28;20483;-73
2021/12/24 06:47:10;;;;;;;0.20;0.20;;;16.20;44.80;;;;;;20794878;28;20026;-73
2021/12/24 06:57:15;;;;;;;0.20;0.20;;;15.20;46.50;;;;;;20815442;28;20118;-74
2021/12/24 07:07:17;;;;;;;0.60;0.33;;;14.30;48.30;;;;;;20810895;28;20503;-76
2021/12/24 07:17:18;;;;;;;4.82;0.43;;;13.70;50.20;;;;;;20808398;28;20038;-76
2021/12/24 07:27:19;;;;;;;0.20;0.20;;;13.10;52.00;;;;;;20841737;28;20136;-74
2021/12/24 07:37:19;;;;;;;0.30;0.20;;;12.80;53.10;;;;;;20742488;28;20664;-74
2021/12/24 07:47:27;;;;;;;0.70;0.40;;;12.60;54.00;;;;;;20725146;28;20030;-76
2021/12/24 07:57:28;;;;;;;0.22;0.20;;;12.40;54.50;;;;;;20724888;28;20113;-70
2021/12/24 08:07:29;;;;;;;0.30;0.30;;;12.40;54.80;;;;;;20704065;28;20113;-73
2021/12/24 08:17:29;;;;;;;0.50;0.10;;;12.30;55.10;;;;;;20720792;28;20049;-76
2021/12/24 08:27:30;;;;;;;0.30;0.30;;;12.30;55.20;;;;;;20706435;28;20068;-78
2021/12/24 08:37:31;;;;;;;0.32;0.20;;;12.30;55.20;;;;;;20705663;28;20476;-77
2021/12/24 08:47:32;;;;;;;0.20;0.20;;;12.30;55.20;;;;;;20703965;28;20464;-78
2021/12/24 08:57:37;;;;;;;0.55;0.30;;;12.30;55.20;;;;;;20703535;28;20045;-79
2021/12/24 09:07:38;;;;;;;1.40;0.40;;;12.30;55.30;;;;;;20733439;28;20046;-79
2021/12/24 09:17:46;;;;;;;0.60;0.22;;;12.20;55.50;;;;;;20742252;28;20041;-78
2021/12/24 09:27:51;;;;;;;0.35;0.30;;;12.20;55.80;;;;;;20702582;28;20430;-78
2021/12/24 09:37:52;;;;;;;0.15;0.15;;;12.10;56.10;;;;;;20717215;28;20547;-79
2021/12/24 09:47:53;;;;;;;2.58;0.30;;;12.00;56.30;;;;;;20699208;28;20494;-80
2021/12/24 09:57:55;;;;;;;0.33;0.30;;;11.90;56.60;;;;;;20730429;28;20049;-81
2021/12/24 10:08:28;;;;;;;0.73;0.30;;;11.90;56.90;;;;;;20791655;28;20784;-80
2021/12/24 10:18:48;;;;;;;0.65;0.28;;;12.00;57.40;;;;;;20748235;28;20090;-76
2021/12/24 10:28:50;;;;;;;1.90;0.40;;;11.90;57.50;;;;;;20775152;28;20037;-82
2021/12/24 10:38:54;;;;;;;10.25;2.10;;;11.90;57.90;;;;;;20766202;28;20492;-75
2021/12/24 10:49:03;;;;;;;1.27;0.35;;;11.90;58.20;;;;;;20748231;28;20057;-77
2021/12/24 10:59:05;;;;;;;0.30;0.28;;;11.90;58.40;;;;;;20762954;28;20484;-81
2021/12/24 11:09:05;;;;;;;0.50;0.50;;;11.80;58.70;;;;;;20738656;28;20604;-75
2021/12/24 11:19:06;;;;;;;0.60;0.30;;;12.10;58.30;;;;;;20764070;28;20048;-79
2021/12/24 11:29:07;;;;;;;0.82;0.68;;;13.10;56.00;;;;;;21141562;23;20050;-79
2021/12/24 11:39:09;;;;;;;2.70;0.30;;;14.10;53.80;;;;;;20763081;28;20054;-78
2021/12/24 11:49:10;;;;;;;0.30;0.22;;;15.00;51.50;;;;;;20727339;28;20600;-77
2021/12/24 11:59:11;;;;;;;0.68;0.45;;;15.90;49.50;;;;;;20795815;28;20033;-74
2021/12/24 12:09:12;;;;;;;0.40;0.20;;;16.40;48.10;;;;;;20778809;28;20038;-75
2021/12/24 12:19:27;;;;;;;0.65;0.32;;;16.50;47.40;;;;;;20783983;28;20788;-75
2021/12/24 12:29:28;;;;;;;0.50;0.38;;;16.50;47.30;;;;;;20829328;28;20164;-76
2021/12/24 12:39:29;;;;;;;0.43;0.25;;;16.30;47.40;;;;;;20728937;28;20034;-75
2021/12/24 12:49:32;;;;;;;0.60;0.30;;;15.50;48.60;;;;;;20733198;28;20091;-77
2021/12/24 12:59:33;;;;;;;0.30;0.30;;;14.70;50.20;;;;;;20700984;28;20038;-76
2021/12/24 13:09:34;;;;;;;2.55;0.30;;;14.00;51.70;;;;;;20731276;28;20472;-76
2021/12/24 13:29:48;;;;;;;0.20;0.20;;;13.10;54.10;;;;;;20731448;28;20038;-76
2021/12/24 13:39:50;;;;;;;0.30;0.20;;;12.70;54.80;;;;;;20712493;28;20030;-75
2021/12/24 13:50:12;;;;;;;0.22;0.20;;;12.50;55.20;;;;;;20744528;28;20033;-76
2021/12/24 14:00:13;;;;;;;0.32;0.30;;;12.50;55.50;;;;;;20748907;28;20041;-75
2021/12/24 14:10:21;;;;;;;0.30;0.30;;;12.50;55.70;;;;;;20792753;28;20059;-77
2021/12/24 14:20:38;;;;;;;0.57;0.20;;;12.50;55.80;;;;;;20792628;28;20033;-76
2021/12/24 14:30:39;;;;;;;0.40;0.30;;;12.40;55.80;;;;;;20811361;28;20091;-75
2021/12/24 14:40:39;;;;;;;0.40;0.32;;;12.40;55.80;;;;;;20791780;28;20375;-75
2021/12/24 14:50:51;;;;;;;1.73;0.77;;;12.40;55.90;;;;;;20790704;28;20033;-74
2021/12/24 15:00:51;;;;;;;1.00;0.55;;;12.40;55.90;;;;;;20807000;28;20040;-76
2021/12/24 15:11:03;;;;;;;1.08;0.40;;;12.30;56.00;;;;;;20823689;28;20443;-75
2021/12/24 15:21:04;;;;;;;0.88;0.85;;;12.20;56.10;;;;;;20833164;28;20033;-75
2021/12/24 15:31:05;;;;;;;0.60;0.40;;;12.20;56.20;;;;;;20804946;28;20132;-74
2021/12/24 15:41:06;;;;;;;1.40;0.70;;;12.10;56.30;;;;;;20820042;28;20397;-75
2021/12/24 15:51:07;;;;;;;1.00;0.70;;;12.70;55.40;;;;;;20805025;28;20419;-76
2021/12/24 16:01:08;;;;;;;1.17;0.65;;;13.60;53.10;;;;;;20819167;28;20053;-75
2021/12/24 16:11:09;;;;;;;1.83;1.30;;;14.60;51.10;;;;;;20819361;28;20041;-75
2021/12/24 16:21:11;;;;;;;2.85;1.63;;;15.40;48.90;;;;;;20802624;28;20133;-78
2021/12/24 16:31:12;;;;;;;2.17;1.20;;;16.00;47.60;;;;;;20803833;28;20146;-78
2021/12/24 16:41:12;;;;;;;7.97;1.50;;;16.10;46.70;;;;;;20758315;28;20046;-77
2021/12/24 16:51:13;;;;;;;4.67;1.33;;;16.10;46.70;;;;;;20784166;28;20459;-74
2021/12/24 17:01:14;;;;;;;1.90;1.17;;;15.90;46.70;;;;;;20800333;28;20323;-74
2021/12/24 17:11:15;;;;;;;3.53;1.35;;;15.30;47.40;;;;;;20816849;28;20065;-76
2021/12/24 17:21:15;;;;;;;2.55;1.17;;;14.50;48.90;;;;;;20798426;28;20486;-76
2021/12/24 17:31:16;;;;;;;1.48;0.80;;;13.80;50.40;;;;;;20782953;28;20037;-77
2021/12/24 17:41:17;;;;;;;3.10;1.30;;;13.20;51.60;;;;;;20795042;28;20029;-78
2021/12/24 17:51:18;;;;;;;3.50;0.90;;;13.00;52.70;;;;;;20819502;28;20472;-77
2021/12/24 18:01:18;;;;;;;1.80;1.08;;;12.60;53.40;;;;;;20813200;28;20040;-76
2021/12/24 18:11:19;;;;;;;2.97;1.20;;;12.50;53.80;;;;;;20796073;28;20133;-75
2021/12/24 18:21:19;;;;;;;1.10;0.73;;;12.50;54.00;;;;;;20795952;28;20033;-77
2021/12/24 18:31:21;;;;;;;1.93;0.90;;;12.50;54.10;;;;;;20777944;28;20034;-78
2021/12/24 18:41:23;;;;;;;2.33;0.77;;;12.60;54.10;;;;;;20810172;28;20307;-79
2021/12/24 18:51:27;;;;;;;1.80;0.90;;;12.60;54.10;;;;;;20782270;28;20045;-75
2021/12/24 19:01:29;;;;;;;0.77;0.50;;;12.70;54.10;;;;;;20826484;28;20103;-76
2021/12/24 19:11:33;;;;;;;1.00;0.73;;;12.70;54.00;;;;;;20794530;28;20033;-77
2021/12/24 19:21:35;;;;;;;0.63;0.43;;;12.70;54.00;;;;;;20841479;28;20033;-78
2021/12/24 19:31:38;;;;;;;1.52;0.70;;;12.70;53.90;;;;;;20793733;28;20041;-78
2021/12/24 19:41:40;;;;;;;0.95;0.57;;;12.70;54.00;;;;;;20807785;28;20037;-78
2021/12/24 19:51:42;;;;;;;0.65;0.50;;;12.70;53.90;;;;;;20823159;28;20045;-77
2021/12/24 20:01:43;;;;;;;0.60;0.40;;;12.70;53.90;;;;;;20805765;28;20487;-75
2021/12/24 20:11:44;;;;;;;0.90;0.60;;;12.70;53.80;;;;;;20805845;28;20071;-73
2021/12/24 20:21:45;;;;;;;1.75;0.70;;;12.60;54.40;;;;;;20804023;28;20045;-77
2021/12/24 20:31:46;;;;;;;0.73;0.40;;;12.60;53.60;;;;;;20802036;28;20064;-75
2021/12/24 20:41:47;;;;;;;0.90;0.40;;;12.60;53.60;;;;;;20818153;28;20095;-73
2021/12/24 20:51:48;;;;;;;1.10;0.50;;;12.60;53.60;;;;;;20818811;28;20060;-76
2021/12/24 21:01:49;;;;;;;0.75;0.50;;;12.60;53.60;;;;;;20799789;28;20048;-75
2021/12/24 21:11:50;;;;;;;1.30;0.40;;;12.60;53.60;;;;;;20815631;28;20025;-75
2021/12/24 21:21:51;;;;;;;0.83;0.43;;;12.60;53.50;;;;;;20798971;28;20399;-74
2021/12/24 21:31:51;;;;;;;0.77;0.50;;;12.50;53.50;;;;;;20799287;28;20299;-77
2021/12/24 21:41:54;;;;;;;0.43;0.28;;;12.50;53.40;;;;;;20797682;28;20045;-76
2021/12/24 21:51:54;;;;;;;0.65;0.35;;;12.50;53.40;;;;;;20797915;28;20059;-75
2021/12/24 22:01:55;;;;;;;0.47;0.30;;;12.50;53.40;;;;;;20781187;28;20037;-76
2021/12/24 22:11:55;;;;;;;0.68;0.30;;;12.40;53.40;;;;;;20797238;28;20486;-75
2021/12/24 22:22:00;;;;;;;0.50;0.28;;;12.40;53.30;;;;;;20795015;28;20408;-75
2021/12/24 22:32:02;;;;;;;0.25;0.20;;;12.40;53.30;;;;;;20796546;28;20476;-78
2021/12/24 22:42:03;;;;;;;0.80;0.45;;;12.40;53.30;;;;;;20795934;28;20128;-75
2021/12/24 22:52:27;;;;;;;1.33;0.25;;;12.40;53.30;;;;;;20810198;28;20131;-75
2021/12/24 23:02:27;;;;;;;0.40;0.30;;;12.40;53.40;;;;;;20827867;28;20045;-75
2021/12/24 23:12:28;;;;;;;1.20;0.40;;;12.40;53.40;;;;;;20810862;28;20026;-74
2021/12/24 23:22:28;;;;;;;0.45;0.20;;;12.40;53.40;;;;;;20809227;28;20073;-76
2021/12/24 23:32:29;;;;;;;0.22;0.22;;;12.40;53.50;;;;;;20826579;28;20029;-76
2021/12/24 23:42:32;;;;;;;1.77;0.57;;;12.30;53.50;;;;;;20803505;28;20044;-75
2021/12/24 23:52:35;;;;;;;1.02;0.30;;;12.30;53.50;;;;;;20823877;28;20464;-76
